South Rome, Illinois
Current Conditions -  °F | °C
As of 11:35 AM on Wednesday 26 Nov 2014 (Local Time) from KC75 Reporting Station
Overcast Overcast  
Wind Chill: 20°   Ceiling: 1000
Heat Index: 28°   Visibility: 7mi
Dew Point: 24°   Wind: 8mph
Humidity: 84%   Direction: 120°ESE
Pressure: 30.08"   Gusts: NA
Location:  40.915°N, 89.5303°W
Report Text: KC75 261735Z AUTO 12007KT 7SM OVC010 M02/M05 A3008 RMK AO2 T10231046
Loading
Personal Weather Stations






























Interactive Weather Map New forecast layout! Learn more

10-Day Weather Forecast

Advertisements
Track Severe Weather on mobile